createdAt,value
2022-09-04T00:01:10.642Z,19.20
2022-09-04T00:04:06.415Z,19.03
2022-09-04T00:06:42.939Z,18.94
2022-09-04T00:09:37.351Z,18.95
2022-09-04T00:12:10.821Z,18.99
2022-09-04T00:14:53.396Z,18.96
2022-09-04T00:17:46.905Z,19.01
2022-09-04T00:20:34.334Z,18.99
2022-09-04T00:23:44.666Z,19.00
2022-09-04T00:26:46.670Z,18.91
2022-09-04T00:29:31.217Z,18.83
2022-09-04T00:32:20.379Z,18.78
2022-09-04T00:35:08.022Z,18.77
2022-09-04T00:38:22.542Z,18.74
2022-09-04T00:41:15.874Z,18.73
2022-09-04T00:44:04.110Z,18.78
2022-09-04T00:46:56.839Z,18.81
2022-09-04T00:49:40.290Z,18.78
2022-09-04T00:53:18.583Z,18.81
2022-09-04T00:56:30.762Z,18.78
2022-09-04T00:59:15.954Z,18.71
2022-09-04T01:01:47.799Z,18.71
2022-09-04T01:04:32.625Z,18.59
2022-09-04T01:07:24.540Z,18.63
2022-09-04T01:10:12.397Z,18.62
2022-09-04T01:13:00.329Z,18.65
2022-09-04T01:15:36.585Z,18.67
2022-09-04T01:18:30.762Z,18.76
2022-09-04T01:21:17.340Z,18.77
2022-09-04T01:24:25.731Z,18.77
2022-09-04T01:27:14.221Z,18.83
2022-09-04T01:29:56.935Z,18.87
2022-09-04T01:32:40.351Z,18.81
2022-09-04T01:35:34.904Z,18.81
2022-09-04T01:38:16.692Z,18.83
2022-09-04T01:40:53.133Z,18.82
2022-09-04T01:43:22.036Z,18.89
2022-09-04T01:46:07.759Z,18.92
2022-09-04T01:48:45.159Z,18.91
2022-09-04T01:51:41.157Z,18.94
2022-09-04T01:54:15.732Z,18.91
2022-09-04T01:57:14.151Z,18.82
2022-09-04T02:00:08.993Z,18.80
2022-09-04T02:03:12.536Z,18.78
2022-09-04T02:06:08.606Z,18.70
2022-09-04T02:09:24.783Z,18.77
2022-09-04T02:12:29.568Z,18.68
2022-09-04T02:15:31.531Z,18.65
2022-09-04T02:18:19.820Z,18.69
2022-09-04T02:21:31.072Z,18.66
2022-09-04T02:24:44.129Z,18.56
2022-09-04T02:27:23.836Z,18.53
2022-09-04T02:29:59.667Z,18.51
2022-09-04T02:32:49.451Z,18.51
2022-09-04T02:35:40.848Z,18.55
2022-09-04T02:38:42.308Z,18.54
2022-09-04T02:41:30.757Z,18.48
2022-09-04T02:44:39.453Z,18.59
2022-09-04T02:47:51.490Z,18.53
2022-09-04T02:50:33.012Z,18.47
2022-09-04T02:53:04.835Z,18.48
2022-09-04T02:55:59.611Z,18.55
2022-09-04T02:59:07.087Z,18.48
2022-09-04T03:01:57.526Z,18.63
2022-09-04T03:04:40.399Z,18.50
2022-09-04T03:07:21.262Z,18.45
2022-09-04T03:09:59.369Z,18.40
2022-09-04T03:12:41.139Z,18.39
2022-09-04T03:15:16.253Z,18.33
2022-09-04T03:18:01.782Z,18.36
2022-09-04T03:20:36.676Z,18.28
2022-09-04T03:23:53.571Z,18.36
2022-09-04T03:26:36.536Z,18.17
2022-09-04T03:29:15.236Z,18.34
2022-09-04T03:32:16.544Z,18.31
2022-09-04T03:35:28.071Z,18.34
2022-09-04T03:38:20.397Z,18.39
2022-09-04T03:40:53.280Z,18.43
2022-09-04T03:43:35.105Z,18.41
2022-09-04T03:46:34.714Z,18.27
2022-09-04T03:49:44.948Z,18.28
2022-09-04T03:52:23.502Z,18.21
2022-09-04T03:55:44.950Z,18.08
2022-09-04T03:58:38.125Z,18.30
2022-09-04T04:01:36.173Z,18.34
2022-09-04T04:04:44.033Z,18.36
2022-09-04T04:07:52.524Z,18.24
2022-09-04T04:10:48.402Z,18.34
2022-09-04T04:13:53.197Z,18.45
2022-09-04T04:16:31.200Z,18.50
2022-09-04T04:19:25.587Z,18.50
2022-09-04T04:22:27.794Z,18.59
2022-09-04T04:24:57.476Z,18.57
2022-09-04T04:28:01.882Z,18.44
2022-09-04T04:30:54.346Z,18.50
2022-09-04T04:34:00.129Z,18.51
2022-09-04T04:37:10.778Z,18.44
2022-09-04T04:40:10.962Z,18.56
2022-09-04T04:43:12.871Z,18.51
2022-09-04T04:45:57.016Z,18.41
2022-09-04T04:49:07.365Z,18.40
2022-09-04T04:52:03.846Z,18.42
2022-09-04T04:54:37.920Z,18.27
2022-09-04T04:57:19.612Z,18.35
2022-09-04T05:00:18.644Z,18.45
2022-09-04T05:03:27.816Z,18.52
2022-09-04T05:06:42.114Z,18.62
2022-09-04T05:09:49.428Z,18.64
2022-09-04T05:13:13.907Z,18.72
2022-09-04T05:16:08.853Z,18.78
2022-09-04T05:18:55.223Z,18.82
2022-09-04T05:21:36.207Z,18.93
2022-09-04T05:24:34.356Z,18.96
2022-09-04T05:27:22.355Z,19.08
2022-09-04T05:30:01.853Z,19.09
2022-09-04T05:33:06.023Z,19.03
2022-09-04T05:36:25.168Z,18.97
2022-09-04T05:39:29.185Z,18.87
2022-09-04T05:42:49.859Z,18.71
2022-09-04T05:46:02.072Z,18.71
2022-09-04T05:49:06.334Z,18.45
2022-09-04T05:51:45.350Z,18.63
2022-09-04T05:54:26.853Z,18.71
2022-09-04T05:57:33.793Z,18.76
2022-09-04T06:00:04.081Z,18.94
2022-09-04T06:03:00.323Z,19.03
2022-09-04T06:06:14.302Z,19.11
2022-09-04T06:09:20.819Z,19.23
2022-09-04T06:12:19.548Z,19.45
2022-09-04T06:15:10.602Z,19.59
2022-09-04T06:18:21.766Z,19.69
2022-09-04T06:21:33.458Z,19.64
2022-09-04T06:24:12.786Z,19.72
2022-09-04T06:27:34.814Z,19.86
2022-09-04T06:30:08.840Z,19.94
2022-09-04T06:32:41.480Z,20.05
2022-09-04T06:35:40.650Z,20.07
2022-09-04T06:38:49.527Z,20.16
2022-09-04T06:41:40.866Z,20.12
2022-09-04T06:44:19.499Z,19.91
2022-09-04T06:47:20.761Z,19.95
2022-09-04T06:49:59.063Z,19.82
2022-09-04T06:52:56.179Z,19.76
2022-09-04T06:55:30.795Z,19.82
2022-09-04T06:58:22.647Z,19.76
2022-09-04T07:01:08.966Z,19.86
2022-09-04T07:04:02.914Z,20.09
2022-09-04T07:06:48.222Z,20.19
2022-09-04T07:09:22.713Z,20.13
2022-09-04T07:12:08.081Z,20.12
2022-09-04T07:15:12.374Z,20.22
2022-09-04T07:17:53.545Z,20.19
2022-09-04T07:20:33.595Z,20.15
2022-09-04T07:23:15.835Z,20.26
2022-09-04T07:26:28.839Z,20.50
2022-09-04T07:29:25.104Z,20.54
2022-09-04T07:32:07.663Z,20.01
2022-09-04T07:35:08.415Z,20.06
2022-09-04T07:38:03.114Z,20.15
2022-09-04T07:40:55.492Z,20.26
2022-09-04T07:43:36.680Z,20.28
2022-09-04T07:46:30.303Z,20.66
2022-09-04T07:49:15.948Z,20.96
2022-09-04T07:51:59.460Z,20.83
2022-09-04T07:55:09.263Z,20.27
2022-09-04T07:58:21.758Z,20.75
2022-09-04T08:01:32.050Z,21.46
2022-09-04T08:04:23.357Z,22.04
2022-09-04T08:07:09.440Z,22.53
2022-09-04T08:10:38.004Z,23.70
2022-09-04T08:13:43.084Z,23.72
2022-09-04T08:16:35.257Z,23.87
2022-09-04T08:19:23.811Z,24.35
2022-09-04T08:21:53.552Z,24.88
2022-09-04T08:24:50.069Z,25.62
2022-09-04T08:28:01.553Z,26.97
2022-09-04T08:30:42.446Z,27.42
2022-09-04T08:33:54.035Z,27.34
2022-09-04T08:36:57.659Z,28.49
2022-09-04T08:39:40.664Z,28.44
2022-09-04T08:43:15.491Z,28.02
2022-09-04T08:46:15.599Z,26.87
2022-09-04T08:49:19.442Z,26.05
2022-09-04T08:53:04.025Z,26.75
2022-09-04T08:55:58.100Z,26.97
2022-09-04T08:58:34.278Z,26.60
2022-09-04T09:01:41.790Z,27.28
2022-09-04T09:04:47.718Z,28.14
2022-09-04T09:07:42.050Z,29.67
2022-09-04T09:10:49.190Z,30.25
2022-09-04T09:13:37.770Z,32.04
2022-09-04T09:16:28.904Z,34.54
2022-09-04T09:19:33.769Z,39.04
2022-09-04T09:22:44.636Z,43.40
2022-09-04T09:25:27.905Z,44.10
2022-09-04T09:28:54.581Z,46.91
2022-09-04T09:32:25.389Z,49.06
2022-09-04T09:35:51.535Z,49.32
2022-09-04T09:38:36.718Z,48.25
2022-09-04T09:41:24.871Z,47.15
2022-09-04T09:44:16.192Z,47.13
2022-09-04T09:47:17.871Z,46.21
2022-09-04T09:50:45.711Z,45.36
2022-09-04T09:54:12.159Z,48.52
2022-09-04T09:56:55.589Z,49.91
2022-09-04T09:59:44.897Z,51.28
2022-09-04T10:03:01.232Z,51.32
2022-09-04T10:06:49.179Z,51.66
2022-09-04T10:09:34.595Z,52.01
2022-09-04T10:12:22.607Z,52.71
2022-09-04T10:15:17.178Z,51.62
2022-09-04T10:18:36.247Z,51.48
2022-09-04T10:21:46.695Z,50.88
2022-09-04T10:24:38.070Z,50.38
2022-09-04T10:27:57.439Z,48.23
2022-09-04T10:30:29.791Z,45.36
2022-09-04T10:33:21.413Z,42.87
2022-09-04T10:36:22.235Z,40.01
2022-09-04T10:39:42.455Z,37.29
2022-09-04T10:42:56.846Z,34.06
2022-09-04T10:45:33.196Z,32.02
2022-09-04T10:48:28.580Z,31.52
2022-09-04T10:51:14.192Z,31.46
2022-09-04T10:54:17.129Z,30.85
2022-09-04T10:57:28.294Z,30.44
2022-09-04T11:00:22.640Z,30.13
2022-09-04T11:03:25.757Z,29.77
2022-09-04T11:06:02.246Z,29.46
2022-09-04T11:09:02.933Z,29.23
2022-09-04T11:12:21.632Z,28.98
2022-09-04T11:15:27.878Z,28.46
2022-09-04T11:18:33.735Z,28.29
2022-09-04T11:21:56.238Z,28.05
2022-09-04T11:24:55.617Z,27.91
2022-09-04T11:27:49.026Z,27.98
2022-09-04T11:30:22.329Z,27.56
2022-09-04T11:33:19.429Z,27.22
2022-09-04T11:36:13.074Z,27.13
2022-09-04T11:39:38.003Z,27.17
2022-09-04T11:42:22.795Z,27.13
2022-09-04T11:45:22.865Z,27.01
2022-09-04T11:48:11.967Z,27.06
2022-09-04T11:51:16.594Z,26.39
2022-09-04T11:54:10.878Z,26.86
2022-09-04T11:57:19.870Z,26.96
2022-09-04T11:59:52.380Z,27.08
2022-09-04T12:02:19.298Z,27.24
2022-09-04T12:05:05.602Z,27.30
2022-09-04T12:07:44.401Z,27.39
2022-09-04T12:10:26.543Z,27.63
2022-09-04T12:13:17.017Z,27.74
2022-09-04T12:16:18.262Z,27.57
2022-09-04T12:19:07.723Z,27.64
2022-09-04T12:22:03.902Z,27.77
2022-09-04T12:25:03.902Z,27.88
2022-09-04T12:27:58.501Z,27.85
2022-09-04T12:30:32.918Z,27.89
2022-09-04T12:33:37.061Z,27.79
2022-09-04T12:36:46.197Z,27.91
2022-09-04T12:39:45.459Z,27.90
2022-09-04T12:42:23.348Z,27.71
2022-09-04T12:45:06.981Z,27.55
2022-09-04T12:48:24.860Z,27.48
2022-09-04T12:51:24.584Z,27.45
2022-09-04T12:54:00.042Z,27.37
2022-09-04T12:56:57.596Z,27.26
2022-09-04T12:59:33.658Z,26.97
2022-09-04T13:02:27.742Z,26.92
2022-09-04T13:05:53.371Z,27.15
2022-09-04T13:08:39.001Z,27.04
2022-09-04T13:11:40.348Z,27.13
2022-09-04T13:14:16.033Z,27.37
2022-09-04T13:17:07.620Z,27.55
2022-09-04T13:20:00.354Z,27.83
2022-09-04T13:23:27.535Z,28.19
2022-09-04T13:26:16.674Z,28.36
2022-09-04T13:29:08.368Z,28.07
2022-09-04T13:32:02.039Z,27.89
2022-09-04T13:35:00.058Z,28.05
2022-09-04T13:37:52.968Z,28.18
2022-09-04T13:40:22.842Z,28.34
2022-09-04T13:43:36.580Z,28.21
2022-09-04T13:46:18.359Z,28.06
2022-09-04T13:48:52.112Z,27.74
2022-09-04T13:51:29.755Z,27.65
2022-09-04T13:54:20.929Z,27.26
2022-09-04T13:57:16.065Z,27.26
2022-09-04T13:59:50.059Z,27.19
2022-09-04T14:02:25.417Z,26.98
2022-09-04T14:05:04.684Z,27.00
2022-09-04T14:07:36.657Z,26.89
2022-09-04T14:10:37.036Z,26.90
2022-09-04T14:13:33.174Z,26.77
2022-09-04T14:16:09.168Z,26.90
2022-09-04T14:19:15.730Z,26.90
2022-09-04T14:22:21.787Z,26.62
2022-09-04T14:25:15.769Z,26.56
2022-09-04T14:28:10.481Z,26.53
2022-09-04T14:30:55.648Z,26.56
2022-09-04T14:34:28.292Z,26.59
2022-09-04T14:37:13.554Z,26.68
2022-09-04T14:39:53.539Z,26.76
2022-09-04T14:42:29.665Z,26.73
2022-09-04T14:45:18.291Z,26.53
2022-09-04T14:47:59.960Z,26.69
2022-09-04T14:50:29.385Z,26.68
2022-09-04T14:53:01.371Z,26.68
2022-09-04T14:55:34.751Z,26.66
2022-09-04T14:58:35.798Z,26.63
2022-09-04T15:01:09.076Z,26.74
2022-09-04T15:04:08.406Z,26.79
2022-09-04T15:07:10.413Z,26.72
2022-09-04T15:09:43.007Z,26.79
2022-09-04T15:12:33.401Z,26.81
2022-09-04T15:15:27.266Z,26.77
2022-09-04T15:18:10.641Z,26.77
2022-09-04T15:20:55.682Z,26.69
2022-09-04T15:23:40.979Z,26.71
2022-09-04T15:26:36.698Z,26.73
2022-09-04T15:29:47.429Z,26.69
2022-09-04T15:32:36.980Z,26.63
2022-09-04T15:35:32.711Z,26.65
2022-09-04T15:38:20.870Z,26.65
2022-09-04T15:41:16.607Z,26.65
2022-09-04T15:43:54.814Z,26.69
2022-09-04T15:47:05.918Z,26.58
2022-09-04T15:49:41.011Z,26.70
2022-09-04T15:52:51.077Z,26.65
2022-09-04T15:55:27.001Z,26.62
2022-09-04T15:58:25.023Z,26.62
2022-09-04T16:01:08.058Z,26.55
2022-09-04T16:03:47.383Z,26.53
2022-09-04T16:06:47.814Z,26.47
2022-09-04T16:09:23.788Z,26.37
2022-09-04T16:12:11.544Z,26.36
2022-09-04T16:14:49.746Z,26.32
2022-09-04T16:17:28.302Z,26.34
2022-09-04T16:20:21.483Z,26.31
2022-09-04T16:22:54.134Z,26.35
2022-09-04T16:25:31.051Z,26.33
2022-09-04T16:28:07.991Z,26.29
2022-09-04T16:31:16.319Z,26.27
2022-09-04T16:33:51.773Z,26.22
2022-09-04T16:36:37.006Z,26.24
2022-09-04T16:39:20.387Z,26.25
2022-09-04T16:42:04.492Z,26.24
2022-09-04T16:45:00.766Z,26.27
2022-09-04T16:47:55.610Z,26.20
2022-09-04T16:50:28.094Z,26.17
2022-09-04T16:53:13.706Z,26.27
2022-09-04T16:56:36.806Z,26.29
2022-09-04T16:59:17.067Z,26.25
2022-09-04T17:01:57.498Z,26.19
2022-09-04T17:04:44.646Z,26.22
2022-09-04T17:07:41.926Z,26.09
2022-09-04T17:10:44.478Z,26.10
2022-09-04T17:13:15.128Z,26.00
2022-09-04T17:15:53.978Z,25.98
2022-09-04T17:18:24.659Z,25.97
2022-09-04T17:26:54.133Z,26.00
2022-09-04T17:29:11.128Z,25.92
2022-09-04T17:29:22.449Z,25.91
2022-09-04T17:31:38.429Z,25.84
2022-09-04T17:40:08.947Z,25.70
2022-09-04T17:40:57.400Z,25.58
2022-09-04T17:41:35.802Z,25.52
2022-09-04T17:43:59.610Z,25.45
2022-09-04T17:46:36.591Z,25.37
2022-09-04T17:49:17.486Z,25.31
2022-09-04T17:51:57.469Z,25.23
2022-09-04T17:54:32.639Z,25.18
2022-09-04T17:57:21.945Z,25.15
2022-09-04T18:00:06.005Z,25.08
2022-09-04T18:02:53.014Z,24.98
2022-09-04T18:05:42.117Z,24.93
2022-09-04T18:08:33.417Z,24.88
2022-09-04T18:11:13.191Z,24.79
2022-09-04T18:14:02.113Z,24.71
2022-09-04T18:16:42.452Z,24.66
2022-09-04T18:19:42.573Z,24.62
2022-09-04T18:22:44.420Z,24.60
2022-09-04T18:25:22.516Z,24.53
2022-09-04T18:28:14.979Z,24.47
2022-09-04T18:37:07.474Z,24.42
2022-09-04T18:37:18.970Z,24.36
2022-09-04T18:37:44.351Z,24.32
2022-09-04T18:39:57.619Z,24.26
2022-09-04T18:50:21.178Z,24.20
2022-09-04T18:50:28.623Z,24.10
2022-09-04T18:50:35.602Z,24.14
2022-09-04T18:51:50.937Z,24.06
2022-09-04T18:54:41.820Z,24.02
2022-09-04T18:57:24.422Z,23.97
2022-09-04T19:00:08.957Z,23.94
2022-09-04T19:03:12.437Z,23.90
2022-09-04T19:05:44.470Z,23.85
2022-09-04T19:08:19.870Z,23.84
2022-09-04T19:10:58.075Z,23.82
2022-09-04T19:13:39.301Z,23.79
2022-09-04T19:16:14.146Z,23.69
2022-09-04T19:19:15.689Z,23.61
2022-09-04T19:21:57.901Z,23.63
2022-09-04T19:24:51.763Z,23.53
2022-09-04T19:27:41.319Z,23.46
2022-09-04T19:30:19.928Z,23.38
2022-09-04T19:33:28.580Z,23.47
2022-09-04T19:36:22.192Z,23.48
2022-09-04T19:45:56.755Z,23.41
2022-09-04T19:45:56.940Z,23.37
2022-09-04T19:46:14.128Z,23.32
2022-09-04T19:48:37.516Z,23.17
2022-09-04T19:53:32.907Z,23.14
2022-09-04T19:54:35.267Z,23.19
2022-09-04T19:57:32.538Z,23.14
2022-09-04T20:00:43.113Z,23.08
2022-09-04T20:03:08.745Z,22.99
2022-09-04T20:05:40.271Z,22.96
2022-09-04T20:08:20.335Z,22.97
2022-09-04T20:11:01.051Z,22.96
2022-09-04T20:13:54.854Z,23.00
2022-09-04T20:16:56.555Z,22.98
2022-09-04T20:19:45.619Z,23.01
2022-09-04T20:22:33.195Z,22.91
2022-09-04T20:25:23.944Z,22.86
2022-09-04T20:28:08.667Z,22.86
2022-09-04T20:30:37.677Z,22.78
2022-09-04T20:33:22.654Z,22.83
2022-09-04T20:36:02.699Z,22.85
2022-09-04T20:39:11.451Z,22.71
2022-09-04T20:41:47.023Z,22.59
2022-09-04T20:44:19.557Z,22.55
2022-09-04T20:52:50.476Z,22.65
2022-09-04T20:52:51.449Z,22.52
2022-09-04T20:53:34.747Z,22.45
2022-09-04T20:57:08.949Z,22.34
2022-09-04T21:03:14.505Z,22.30
2022-09-04T21:03:29.496Z,22.27
2022-09-04T21:06:24.354Z,22.29
2022-09-04T21:09:06.759Z,22.15
2022-09-04T21:11:41.947Z,22.17
2022-09-04T21:14:30.056Z,22.22
2022-09-04T21:17:33.724Z,22.18
2022-09-04T21:20:35.565Z,22.13
2022-09-04T21:24:03.490Z,22.00
2022-09-04T21:26:54.654Z,22.02
2022-09-04T21:30:07.718Z,21.96
2022-09-04T21:33:27.607Z,21.90
2022-09-04T21:36:28.525Z,21.77
2022-09-04T21:39:28.618Z,21.75
2022-09-04T21:41:55.531Z,21.55
2022-09-04T21:44:57.269Z,21.49
2022-09-04T21:47:45.540Z,21.57
2022-09-04T21:50:52.594Z,21.53
2022-09-04T21:54:29.844Z,21.59
2022-09-04T22:02:26.112Z,21.61
2022-09-04T22:02:45.028Z,21.65
2022-09-04T22:03:25.845Z,21.77
2022-09-04T22:06:54.268Z,21.79
2022-09-04T22:13:38.967Z,21.59
2022-09-04T22:14:03.141Z,21.47
2022-09-04T22:17:15.661Z,21.40
2022-09-04T22:20:10.692Z,21.27
2022-09-04T22:23:18.450Z,21.30
2022-09-04T22:26:23.308Z,21.21
2022-09-04T22:29:15.835Z,21.17
2022-09-04T22:32:32.735Z,21.20
2022-09-04T22:35:35.647Z,21.22
2022-09-04T22:38:59.773Z,21.20
2022-09-04T22:42:13.706Z,21.27
2022-09-04T22:45:22.786Z,21.32
2022-09-04T22:48:18.219Z,21.37
2022-09-04T22:51:29.797Z,21.38
2022-09-04T22:54:24.081Z,21.38
2022-09-04T22:57:12.901Z,21.16
2022-09-04T23:00:18.312Z,21.12
2022-09-04T23:03:18.214Z,21.06
2022-09-04T23:06:18.953Z,21.04
2022-09-04T23:13:49.432Z,20.79
2022-09-04T23:13:58.478Z,20.90
2022-09-04T23:15:42.152Z,20.95
2022-09-04T23:25:16.275Z,20.71
2022-09-04T23:26:38.671Z,20.59
2022-09-04T23:26:49.022Z,20.64
2022-09-04T23:28:27.738Z,20.66
2022-09-04T23:31:40.321Z,20.72
2022-09-04T23:35:15.102Z,20.82
2022-09-04T23:38:24.971Z,20.87
2022-09-04T23:41:04.481Z,20.92
2022-09-04T23:43:40.082Z,20.86
2022-09-04T23:46:49.213Z,20.89
2022-09-04T23:49:54.606Z,20.94
2022-09-04T23:53:09.753Z,20.91
2022-09-04T23:55:49.293Z,20.84
2022-09-04T23:59:03.640Z,20.79
